Time;durP1;ratioP1;P1;durP2;ratioP2;P2;SDS_P1;SDS_P2;PMS_P1;PMS_P2;Temp;Humidity;BMP_temperature;BMP_pressure;BME280_temperature;BME280_humidity;BME280_pressure;Samples;Min_cycle;Max_cycle;Signal;HPM_P1;HPM_P2
2022/10/19 00:01:51;;;;;;;;;;;18.50;99.90;;;;;;5055648;28;19912;-65
2022/10/19 00:04:16;;;;;;;;;;;18.50;99.90;;;;;;5056504;28;19908;-65
2022/10/19 00:06:43;;;;;;;;;;;18.40;99.90;;;;;;5056997;28;20132;-65
2022/10/19 00:09:10;;;;;;;;;;;18.40;99.90;;;;;;5058023;28;20050;-65
2022/10/19 00:11:37;;;;;;;;;;;18.40;99.90;;;;;;5057366;28;19909;-65
2022/10/19 00:14:03;;;;;;;;;;;18.40;99.90;;;;;;5058722;28;20268;-64
2022/10/19 00:16:31;;;;;;;;;;;18.40;99.90;;;;;;5058148;28;19917;-65
2022/10/19 00:18:57;;;;;;;;;;;18.40;99.90;;;;;;5057898;28;20175;-65
2022/10/19 00:21:23;;;;;;;;;;;18.40;99.90;;;;;;5057029;28;19986;-65
2022/10/19 00:23:49;;;;;;;;;;;18.30;99.90;;;;;;5057831;28;19999;-65
2022/10/19 00:26:15;;;;;;;;;;;18.40;99.90;;;;;;5055862;28;20019;-65
2022/10/19 00:28:41;;;;;;;;;;;18.30;99.90;;;;;;5056014;28;20247;-64
2022/10/19 00:31:11;;;;;;;;;;;18.30;99.90;;;;;;5058057;28;19909;-65
2022/10/19 00:33:37;;;;;;;;;;;18.30;99.90;;;;;;5058059;28;19916;-64
2022/10/19 00:36:03;;;;;;;;;;;18.30;99.90;;;;;;5058343;28;19920;-65
2022/10/19 00:38:29;;;;;;;;;;;18.30;99.90;;;;;;5058803;28;19908;-65
2022/10/19 00:40:54;;;;;;;;;;;18.20;99.90;;;;;;5059096;28;19912;-65
2022/10/19 00:43:22;;;;;;;;;;;18.30;99.90;;;;;;5059355;28;20194;-65
2022/10/19 00:45:48;;;;;;;;;;;18.20;99.90;;;;;;5058376;28;19943;-65
2022/10/19 00:48:32;;;;;;;;;;;18.20;99.90;;;;;;5054889;28;19908;-64
2022/10/19 00:50:58;;;;;;;;;;;18.20;99.90;;;;;;5056471;28;19908;-65
2022/10/19 00:53:26;;;;;;;;;;;18.20;99.90;;;;;;5056877;28;19908;-65
2022/10/19 00:55:52;;;;;;;;;;;18.20;99.90;;;;;;5057257;28;19939;-64
2022/10/19 00:58:17;;;;;;;;;;;18.20;99.90;;;;;;5057869;28;20468;-64
2022/10/19 01:00:43;;;;;;;;;;;18.20;99.90;;;;;;5055694;28;19908;-64
2022/10/19 01:03:10;;;;;;;;;;;18.20;99.90;;;;;;5057321;28;19957;-64
2022/10/19 01:05:37;;;;;;;;;;;18.10;99.90;;;;;;5055547;28;19908;-64
2022/10/19 01:08:02;;;;;;;;;;;18.10;99.90;;;;;;5055443;28;19908;-63
2022/10/19 01:10:40;;;;;;;;;;;18.10;99.90;;;;;;5056205;28;19916;-63
2022/10/19 01:13:06;;;;;;;;;;;18.10;99.90;;;;;;5056455;28;20255;-63
2022/10/19 01:15:34;;;;;;;;;;;18.10;99.90;;;;;;5055530;28;20354;-63
2022/10/19 01:18:00;;;;;;;;;;;18.10;99.90;;;;;;5056089;28;20255;-63
2022/10/19 01:20:41;;;;;;;;;;;18.10;99.90;;;;;;5057085;28;19977;-63
2022/10/19 01:23:25;;;;;;;;;;;18.10;99.90;;;;;;5056636;28;19912;-63
2022/10/19 01:25:57;;;;;;;;;;;18.10;99.90;;;;;;5056369;28;19909;-63
2022/10/19 01:28:40;;;;;;;;;;;18.10;99.90;;;;;;5070741;23;19924;-9
2022/10/19 01:31:24;;;;;;;;;;;18.00;99.90;;;;;;5064650;28;20269;-10
2022/10/19 01:33:56;;;;;;;;;;;18.00;99.90;;;;;;5074921;28;20275;-8
2022/10/19 01:36:26;;;;;;;;;;;18.00;99.90;;;;;;5091333;28;19912;-9
2022/10/19 01:38:55;;;;;;;;;;;18.00;99.90;;;;;;5092416;28;19935;-9
2022/10/19 01:41:27;;;;;;;;;;;18.00;99.90;;;;;;5092404;28;19912;-9
2022/10/19 01:43:56;;;;;;;;;;;18.00;99.90;;;;;;5076963;28;20398;-9
2022/10/19 01:46:24;;;;;;;;;;;18.00;99.90;;;;;;5077570;28;20212;-9
2022/10/19 01:48:53;;;;;;;;;;;18.00;99.90;;;;;;5094771;28;19908;-8
2022/10/19 01:51:24;;;;;;;;;;;17.90;99.90;;;;;;5060322;28;19909;-10
2022/10/19 01:53:52;;;;;;;;;;;17.90;99.90;;;;;;5079173;28;19909;-9
2022/10/19 01:56:20;;;;;;;;;;;17.90;99.90;;;;;;5073961;28;19912;-10
2022/10/19 01:58:46;;;;;;;;;;;17.90;99.90;;;;;;5099515;28;20304;-10
2022/10/19 02:01:14;;;;;;;;;;;17.90;99.90;;;;;;5083680;28;19916;-10
2022/10/19 02:03:41;;;;;;;;;;;17.90;99.90;;;;;;5102404;28;19908;-10
2022/10/19 02:06:07;;;;;;;;;;;17.90;99.90;;;;;;5101648;28;20336;-10
2022/10/19 02:08:52;;;;;;;;;;;17.90;99.90;;;;;;5102362;28;19951;-8
2022/10/19 02:11:18;;;;;;;;;;;17.90;99.90;;;;;;5101757;28;20292;-10
2022/10/19 02:13:44;;;;;;;;;;;17.80;99.90;;;;;;5084440;28;20191;-10
2022/10/19 02:16:17;;;;;;;;;;;17.80;99.90;;;;;;5101323;28;19998;-9
2022/10/19 02:18:49;;;;;;;;;;;17.80;99.90;;;;;;5101403;28;19958;-9
2022/10/19 02:21:15;;;;;;;;;;;17.80;99.90;;;;;;5084080;28;19923;-9
2022/10/19 02:23:41;;;;;;;;;;;17.80;99.90;;;;;;5100990;28;20282;-8
2022/10/19 02:26:06;;;;;;;;;;;17.80;99.90;;;;;;5101652;28;20403;-8
2022/10/19 02:28:32;;;;;;;;;;;17.80;99.90;;;;;;5101477;28;19916;-9
2022/10/19 02:30:58;;;;;;;;;;;17.80;99.90;;;;;;5101650;28;20011;-10
2022/10/19 02:33:24;;;;;;;;;;;17.80;99.90;;;;;;5101238;28;19915;-8
2022/10/19 02:35:50;;;;;;;;;;;17.70;99.90;;;;;;5083978;28;19920;-8
2022/10/19 02:38:18;;;;;;;;;;;17.70;99.90;;;;;;5101115;28;19908;-9
2022/10/19 02:40:48;;;;;;;;;;;17.70;99.90;;;;;;5101797;28;19907;-9
2022/10/19 02:43:18;;;;;;;;;;;17.70;99.90;;;;;;5100743;28;19973;-10
2022/10/19 02:46:22;;;;;;;;;;;17.70;99.90;;;;;;5101274;28;20170;-8
2022/10/19 02:48:49;;;;;;;;;;;17.70;99.90;;;;;;5022619;28;19975;-10
2022/10/19 02:51:31;;;;;;;;;;;17.70;99.90;;;;;;5039199;28;19909;-10
2022/10/19 02:53:57;;;;;;;;;;;17.70;99.90;;;;;;5034650;28;20332;-9
2022/10/19 02:56:22;;;;;;;;;;;17.60;99.90;;;;;;5022931;28;19909;-9
2022/10/19 02:58:48;;;;;;;;;;;17.60;99.90;;;;;;5039172;28;19909;-9
2022/10/19 03:01:14;;;;;;;;;;;17.60;99.90;;;;;;5097203;28;19912;-9
2022/10/19 03:03:40;;;;;;;;;;;17.60;99.90;;;;;;5100991;28;20017;-9
2022/10/19 03:06:06;;;;;;;;;;;17.60;99.90;;;;;;5083065;28;19919;-9
2022/10/19 03:08:31;;;;;;;;;;;17.60;99.90;;;;;;5100395;28;19908;-9
2022/10/19 03:10:57;;;;;;;;;;;17.60;99.90;;;;;;5100566;28;20011;-10
2022/10/19 03:13:24;;;;;;;;;;;17.60;99.90;;;;;;5099844;28;19919;-9
2022/10/19 03:15:50;;;;;;;;;;;17.60;99.90;;;;;;5100498;28;19938;-9
2022/10/19 03:18:15;;;;;;;;;;;17.60;99.90;;;;;;5099828;28;20334;-9
2022/10/19 03:20:41;;;;;;;;;;;17.50;99.90;;;;;;5099857;28;19912;-9
2022/10/19 03:23:08;;;;;;;;;;;17.50;99.90;;;;;;5100367;28;19931;-9
2022/10/19 03:25:33;;;;;;;;;;;17.50;99.90;;;;;;5082355;28;20281;-10
2022/10/19 03:27:59;;;;;;;;;;;17.50;99.90;;;;;;5082842;28;19927;-8
2022/10/19 03:30:24;;;;;;;;;;;17.50;99.90;;;;;;5099510;28;19908;-9
2022/10/19 03:32:51;;;;;;;;;;;17.50;99.90;;;;;;5100211;28;19908;-9
2022/10/19 03:35:17;;;;;;;;;;;17.50;99.90;;;;;;5082184;28;20224;-10
2022/10/19 03:37:42;;;;;;;;;;;17.50;99.90;;;;;;5082441;28;20166;-9
2022/10/19 03:40:08;;;;;;;;;;;17.40;99.90;;;;;;5082317;28;19973;-9
2022/10/19 03:42:39;;;;;;;;;;;17.40;99.90;;;;;;5098963;28;19959;-9
2022/10/19 03:45:05;;;;;;;;;;;17.40;99.90;;;;;;5099302;28;20008;-10
2022/10/19 03:47:31;;;;;;;;;;;17.40;99.90;;;;;;5099582;28;19911;-10
2022/10/19 03:49:56;;;;;;;;;;;17.40;99.90;;;;;;5099799;28;19916;-8
2022/10/19 03:52:22;;;;;;;;;;;17.40;99.90;;;;;;5082438;28;20162;-9
2022/10/19 03:54:51;;;;;;;;;;;17.40;99.90;;;;;;5081007;28;19919;-9
2022/10/19 03:57:16;;;;;;;;;;;17.40;99.90;;;;;;5100012;28;20200;-9
2022/10/19 03:59:42;;;;;;;;;;;17.40;99.90;;;;;;5099365;28;20281;-9
2022/10/19 04:02:09;;;;;;;;;;;17.30;99.90;;;;;;5081664;28;19912;-9
2022/10/19 04:04:34;;;;;;;;;;;17.30;99.90;;;;;;5081322;28;19916;-8
2022/10/19 04:07:00;;;;;;;;;;;17.30;99.90;;;;;;5081382;28;19969;-9
2022/10/19 04:09:25;;;;;;;;;;;17.30;99.90;;;;;;5098309;28;20015;-9
2022/10/19 04:11:52;;;;;;;;;;;17.30;99.90;;;;;;5098742;28;19988;-9
2022/10/19 04:14:18;;;;;;;;;;;17.30;99.90;;;;;;5098181;28;20352;-10
2022/10/19 04:16:44;;;;;;;;;;;17.20;99.90;;;;;;5080610;28;19908;-9
2022/10/19 04:19:12;;;;;;;;;;;17.30;99.90;;;;;;5098480;28;19912;-9
2022/10/19 04:21:40;;;;;;;;;;;17.20;99.90;;;;;;5097147;28;19912;-10
2022/10/19 04:24:05;;;;;;;;;;;17.20;99.90;;;;;;5080675;28;19911;-10
2022/10/19 04:26:31;;;;;;;;;;;17.20;99.90;;;;;;5081019;28;19912;-9
2022/10/19 04:28:58;;;;;;;;;;;17.20;99.90;;;;;;5098069;28;19951;-9
2022/10/19 04:31:23;;;;;;;;;;;17.20;99.90;;;;;;5080116;28;20185;-9
2022/10/19 04:33:49;;;;;;;;;;;17.20;99.90;;;;;;5095812;28;20314;-9
2022/10/19 04:36:15;;;;;;;;;;;17.20;99.90;;;;;;5096861;28;19975;-9
2022/10/19 04:38:40;;;;;;;;;;;17.20;99.90;;;;;;5097250;28;20324;-10
2022/10/19 04:41:07;;;;;;;;;;;17.20;99.90;;;;;;5096122;28;19920;-10
2022/10/19 04:43:33;;;;;;;;;;;17.10;99.90;;;;;;5096610;28;20281;-10
2022/10/19 04:46:04;;;;;;;;;;;17.10;99.90;;;;;;5061145;28;20237;-8
2022/10/19 04:48:32;;;;;;;;;;;17.10;99.90;;;;;;5094858;28;20035;-9
2022/10/19 04:50:57;;;;;;;;;;;17.10;99.90;;;;;;5096437;28;20354;-9
2022/10/19 04:53:23;;;;;;;;;;;17.10;99.90;;;;;;5079056;28;19916;-9
2022/10/19 04:55:49;;;;;;;;;;;17.10;99.90;;;;;;5078292;28;20405;-9
2022/10/19 04:58:15;;;;;;;;;;;17.10;99.90;;;;;;5095542;28;19998;-9
2022/10/19 05:00:41;;;;;;;;;;;17.10;99.90;;;;;;5101199;22;19952;-9
2022/10/19 05:03:06;;;;;;;;;;;17.00;99.90;;;;;;5091936;28;19920;-9
2022/10/19 05:05:32;;;;;;;;;;;17.00;99.90;;;;;;5096524;28;19908;-9
2022/10/19 05:07:58;;;;;;;;;;;17.00;99.90;;;;;;5096729;28;20185;-10
2022/10/19 05:10:24;;;;;;;;;;;17.00;99.90;;;;;;5095068;28;19951;-9
2022/10/19 05:12:49;;;;;;;;;;;17.00;99.90;;;;;;5096160;28;20363;-10
2022/10/19 05:15:15;;;;;;;;;;;17.00;99.90;;;;;;5096177;28;19915;-10
2022/10/19 05:17:41;;;;;;;;;;;17.00;99.90;;;;;;5093857;28;19916;-10
2022/10/19 05:20:07;;;;;;;;;;;17.00;99.90;;;;;;5095267;28;19993;-8
2022/10/19 05:22:33;;;;;;;;;;;17.00;99.90;;;;;;5094858;28;20240;-10
2022/10/19 05:24:58;;;;;;;;;;;17.00;99.90;;;;;;5095508;28;19908;-8
2022/10/19 05:27:24;;;;;;;;;;;16.90;99.90;;;;;;5095640;28;19908;-10
2022/10/19 05:29:50;;;;;;;;;;;16.90;99.90;;;;;;5095718;28;20363;-9
2022/10/19 05:32:15;;;;;;;;;;;16.90;99.90;;;;;;5128193;28;19957;-9
2022/10/19 05:34:41;;;;;;;;;;;16.90;99.90;;;;;;5127738;28;19912;-8
2022/10/19 05:37:07;;;;;;;;;;;16.90;99.90;;;;;;5094878;28;19991;-8
2022/10/19 05:39:32;;;;;;;;;;;16.90;99.90;;;;;;5094069;28;19909;-9
2022/10/19 05:41:58;;;;;;;;;;;16.90;99.90;;;;;;5094614;28;20011;-8
2022/10/19 05:44:23;;;;;;;;;;;16.90;99.90;;;;;;5127797;28;20299;-10
2022/10/19 05:46:50;;;;;;;;;;;16.90;99.90;;;;;;5093807;28;20418;-10
2022/10/19 05:49:17;;;;;;;;;;;16.90;99.90;;;;;;5093812;28;19957;-11
2022/10/19 05:51:42;;;;;;;;;;;16.90;99.90;;;;;;5093490;28;19908;-9
2022/10/19 05:54:09;;;;;;;;;;;16.90;99.90;;;;;;5094138;28;19919;-10
2022/10/19 05:56:34;;;;;;;;;;;16.80;99.90;;;;;;5093759;28;19958;-10
2022/10/19 05:59:02;;;;;;;;;;;16.80;99.90;;;;;;5095209;28;19952;-8
2022/10/19 06:01:33;;;;;;;;;;;16.80;99.90;;;;;;5093845;28;19916;-9
2022/10/19 06:03:59;;;;;;;;;;;16.80;99.90;;;;;;5093941;28;19908;-9
2022/10/19 06:06:25;;;;;;;;;;;16.80;99.90;;;;;;5093644;28;19957;-10
2022/10/19 06:08:51;;;;;;;;;;;16.80;99.90;;;;;;5094427;28;20328;-9
2022/10/19 06:11:23;;;;;;;;;;;16.80;99.90;;;;;;5094531;28;19947;-11
2022/10/19 06:13:50;;;;;;;;;;;16.80;99.90;;;;;;5110864;28;19915;-10
2022/10/19 06:16:16;;;;;;;;;;;16.80;99.90;;;;;;5093828;28;19912;-9
2022/10/19 06:18:42;;;;;;;;;;;16.80;99.90;;;;;;5096416;28;20251;-10
2022/10/19 06:21:12;;;;;;;;;;;16.90;99.90;;;;;;5097248;28;19924;-10
2022/10/19 06:23:38;;;;;;;;;;;16.90;99.90;;;;;;5096512;28;19966;-9
2022/10/19 06:26:05;;;;;;;;;;;16.90;99.90;;;;;;5096787;28;19916;-9
2022/10/19 06:28:31;;;;;;;;;;;16.90;99.90;;;;;;5097112;28;19911;-10
2022/10/19 06:30:57;;;;;;;;;;;16.90;99.90;;;;;;5095705;28;19961;-9
2022/10/19 06:33:23;;;;;;;;;;;16.90;99.90;;;;;;5095803;28;19912;-9
2022/10/19 06:35:49;;;;;;;;;;;16.90;99.90;;;;;;5097157;28;19908;-11
2022/10/19 06:38:14;;;;;;;;;;;16.90;99.90;;;;;;5097480;28;19916;-9
2022/10/19 06:40:41;;;;;;;;;;;17.00;99.90;;;;;;5098466;28;19909;-9
2022/10/19 06:43:07;;;;;;;;;;;17.10;99.90;;;;;;5098061;28;19951;-8
2022/10/19 06:45:32;;;;;;;;;;;17.10;99.90;;;;;;5131031;27;19954;-9
2022/10/19 06:47:59;;;;;;;;;;;17.40;99.90;;;;;;5096812;28;19920;-8
2022/10/19 06:50:24;;;;;;;;;;;17.80;99.90;;;;;;5096926;28;20304;-9
2022/10/19 06:52:50;;;;;;;;;;;18.10;99.70;;;;;;5097789;28;19972;-10
2022/10/19 06:55:16;;;;;;;;;;;18.10;99.40;;;;;;5130339;27;20340;-9
2022/10/19 06:57:42;;;;;;;;;;;18.00;99.30;;;;;;5131940;27;19908;-9
2022/10/19 07:00:08;;;;;;;;;;;18.00;99.30;;;;;;5098676;28;20360;-9
2022/10/19 07:02:36;;;;;;;;;;;18.20;99.00;;;;;;5097993;28;19916;-9
2022/10/19 07:05:02;;;;;;;;;;;18.60;98.10;;;;;;5098657;28;20021;-9
2022/10/19 07:07:27;;;;;;;;;;;18.90;97.20;;;;;;5097073;28;19991;-10
2022/10/19 07:09:53;;;;;;;;;;;19.40;95.90;;;;;;5097523;28;19934;-10
2022/10/19 07:12:19;;;;;;;;;;;19.90;94.50;;;;;;5114817;28;20337;-9
2022/10/19 07:14:44;;;;;;;;;;;20.20;92.80;;;;;;5131831;27;19939;-11
2022/10/19 07:17:10;;;;;;;;;;;20.10;92.50;;;;;;5095749;28;20189;-10
2022/10/19 07:19:36;;;;;;;;;;;19.90;92.60;;;;;;5093669;28;19924;-11
2022/10/19 07:22:02;;;;;;;;;;;19.90;92.70;;;;;;5078377;28;19912;-10
2022/10/19 07:24:28;;;;;;;;;;;20.00;92.40;;;;;;5076949;28;19909;-11
2022/10/19 07:26:53;;;;;;;;;;;20.00;92.20;;;;;;5077974;28;19924;-8
2022/10/19 07:29:19;;;;;;;;;;;20.00;92.00;;;;;;5109424;28;20474;-9
2022/10/19 07:31:45;;;;;;;;;;;20.10;91.60;;;;;;5076344;28;19909;-9
2022/10/19 07:34:11;;;;;;;;;;;20.00;91.70;;;;;;5076104;28;19908;-10
2022/10/19 07:36:38;;;;;;;;;;;20.30;91.20;;;;;;5109042;28;20009;-9
2022/10/19 07:39:05;;;;;;;;;;;21.10;88.60;;;;;;5076190;28;19924;-9
2022/10/19 07:41:33;;;;;;;;;;;21.90;82.50;;;;;;5109163;28;19920;-9
2022/10/19 07:43:59;;;;;;;;;;;22.60;77.10;;;;;;5108766;28;19909;-10
2022/10/19 07:46:26;;;;;;;;;;;23.20;72.70;;;;;;5077000;28;20216;-9
2022/10/19 07:48:52;;;;;;;;;;;23.60;69.40;;;;;;5109487;28;20162;-10
2022/10/19 07:51:20;;;;;;;;;;;23.90;66.80;;;;;;5077727;28;19919;-11
2022/10/19 07:53:45;;;;;;;;;;;24.20;64.80;;;;;;5077013;28;19909;-10
2022/10/19 07:56:12;;;;;;;;;;;24.50;62.70;;;;;;5092574;28;19908;-12
2022/10/19 07:58:38;;;;;;;;;;;24.90;60.80;;;;;;5076198;28;19909;-10
2022/10/19 08:01:05;;;;;;;;;;;25.20;59.40;;;;;;5074799;28;20371;-13
2022/10/19 08:03:31;;;;;;;;;;;25.60;58.50;;;;;;5076156;28;19915;-10
2022/10/19 08:06:01;;;;;;;;;;;25.80;57.50;;;;;;5110089;28;19951;-10
2022/10/19 08:08:28;;;;;;;;;;;25.90;56.90;;;;;;5108320;28;19908;-9
2022/10/19 08:10:54;;;;;;;;;;;26.00;56.50;;;;;;5075434;28;19919;-11
2022/10/19 08:13:19;;;;;;;;;;;26.20;55.90;;;;;;5076549;28;19909;-9
2022/10/19 08:15:45;;;;;;;;;;;26.40;55.40;;;;;;5075338;28;20159;-10
2022/10/19 08:18:13;;;;;;;;;;;26.70;54.80;;;;;;5075748;28;19919;-9
2022/10/19 08:20:42;;;;;;;;;;;26.90;54.30;;;;;;5091777;28;19951;-9
2022/10/19 08:23:07;;;;;;;;;;;27.10;53.60;;;;;;5109392;28;20002;-11
2022/10/19 08:25:33;;;;;;;;;;;27.10;53.30;;;;;;5075664;28;20070;-10
2022/10/19 08:27:59;;;;;;;;;;;27.20;53.10;;;;;;5075598;28;20373;-12
2022/10/19 08:30:24;;;;;;;;;;;27.40;52.70;;;;;;5075295;28;20308;-10
2022/10/19 08:32:50;;;;;;;;;;;27.50;52.30;;;;;;5106621;28;19970;-10
2022/10/19 08:35:15;;;;;;;;;;;27.60;52.20;;;;;;5075223;28;20442;-9
2022/10/19 08:37:41;;;;;;;;;;;27.70;51.90;;;;;;5090726;28;19998;-9
2022/10/19 08:40:15;;;;;;;;;;;27.90;51.70;;;;;;5075376;28;19969;-12
2022/10/19 08:42:46;;;;;;;;;;;28.00;51.40;;;;;;5074352;28;20363;-12
2022/10/19 08:45:31;;;;;;;;;;;28.20;51.30;;;;;;5075508;28;19920;-11
2022/10/19 08:47:56;;;;;;;;;;;28.30;51.20;;;;;;5076052;28;19991;-10
2022/10/19 08:50:27;;;;;;;;;;;28.10;51.00;;;;;;5076718;28;20050;-10
2022/10/19 08:52:56;;;;;;;;;;;27.90;51.60;;;;;;5076233;28;19912;-9
2022/10/19 08:55:31;;;;;;;;;;;27.90;51.50;;;;;;5076521;28;20262;-11
2022/10/19 08:58:15;;;;;;;;;;;27.90;51.70;;;;;;5076022;28;19919;-11
2022/10/19 09:00:59;;;;;;;;;;;27.90;51.70;;;;;;5074774;28;19912;-11
2022/10/19 09:03:31;;;;;;;;;;;27.90;51.80;;;;;;5075842;28;19913;-12
2022/10/19 09:06:19;;;;;;;;;;;27.60;51.90;;;;;;5074824;28;20262;-11
2022/10/19 09:08:45;;;;;;;;;;;27.50;51.90;;;;;;5075633;28;20282;-10
2022/10/19 09:11:17;;;;;;;;;;;27.50;51.90;;;;;;5074621;28;19919;-11
2022/10/19 09:13:43;;;;;;;;;;;27.50;51.90;;;;;;5075000;28;19955;-9
2022/10/19 09:16:18;;;;;;;;;;;27.40;51.90;;;;;;5074590;28;19939;-11
2022/10/19 09:18:48;;;;;;;;;;;27.50;51.90;;;;;;5075294;28;19972;-10
2022/10/19 09:21:18;;;;;;;;;;;27.70;51.80;;;;;;5075791;28;20590;-10
2022/10/19 09:23:54;;;;;;;;;;;27.80;51.50;;;;;;5076193;28;19912;-10
2022/10/19 09:26:21;;;;;;;;;;;27.90;51.30;;;;;;5074739;28;20236;-10
2022/10/19 09:28:51;;;;;;;;;;;27.70;51.30;;;;;;5108195;28;19909;-12
2022/10/19 09:31:27;;;;;;;;;;;27.20;51.50;;;;;;5074243;28;19948;-10
2022/10/19 09:33:56;;;;;;;;;;;26.40;52.00;;;;;;5108538;28;19970;-11
2022/10/19 09:36:23;;;;;;;;;;;25.60;52.90;;;;;;5075279;28;19908;-12
2022/10/19 09:38:49;;;;;;;;;;;25.00;53.80;;;;;;5074956;28;19978;-11
2022/10/19 09:41:16;;;;;;;;;;;24.40;55.00;;;;;;5074783;28;19912;-12
2022/10/19 09:43:52;;;;;;;;;;;24.00;56.30;;;;;;5074571;28;20274;-11
2022/10/19 09:46:56;;;;;;;;;;;23.60;57.50;;;;;;5074079;28;19909;-11
2022/10/19 09:49:38;;;;;;;;;;;23.20;58.60;;;;;;5011637;28;20291;-12
2022/10/19 09:52:05;;;;;;;;;;;22.90;60.30;;;;;;5011607;28;19909;-10
2022/10/19 09:54:35;;;;;;;;;;;22.70;62.40;;;;;;5051088;28;19959;-11
2022/10/19 09:57:02;;;;;;;;;;;22.50;63.90;;;;;;5077533;28;19909;-10
2022/10/19 09:59:28;;;;;;;;;;;22.30;65.60;;;;;;5077974;28;19919;-11
2022/10/19 10:02:13;;;;;;;;;;;22.20;66.90;;;;;;5076303;28;19981;-11
2022/10/19 10:04:39;;;;;;;;;;;22.00;68.00;;;;;;5078095;28;19908;-11
2022/10/19 10:07:04;;;;;;;;;;;21.90;69.20;;;;;;5078319;28;19919;-10
2022/10/19 10:09:30;;;;;;;;;;;21.80;69.60;;;;;;5076687;28;19908;-11
2022/10/19 10:11:57;;;;;;;;;;;21.70;70.60;;;;;;5075512;28;19909;-11
2022/10/19 10:14:26;;;;;;;;;;;21.60;71.30;;;;;;5078169;28;19908;-11
2022/10/19 10:16:55;;;;;;;;;;;21.50;71.80;;;;;;5076251;28;20213;-10
2022/10/19 10:19:25;;;;;;;;;;;21.50;72.50;;;;;;5077910;28;20298;-10
2022/10/19 10:21:53;;;;;;;;;;;21.40;72.80;;;;;;5077108;28;19965;-12
2022/10/19 10:24:20;;;;;;;;;;;21.40;73.40;;;;;;5077518;28;19912;-10
2022/10/19 10:26:47;;;;;;;;;;;21.20;74.00;;;;;;5110633;28;19951;-10
2022/10/19 10:29:19;;;;;;;;;;;21.20;74.90;;;;;;5078237;28;19909;-10
2022/10/19 10:31:46;;;;;;;;;;;21.00;75.50;;;;;;5078438;28;20398;-10
2022/10/19 10:34:17;;;;;;;;;;;21.00;76.10;;;;;;5111075;28;20185;-11
2022/10/19 10:36:42;;;;;;;;;;;20.90;76.80;;;;;;5077949;28;20202;-11
2022/10/19 10:39:13;;;;;;;;;;;20.80;77.60;;;;;;5093504;28;19909;-11
2022/10/19 10:41:41;;;;;;;;;;;20.80;78.60;;;;;;5077226;28;19912;-10
2022/10/19 10:44:30;;;;;;;;;;;20.70;79.30;;;;;;5076654;28;20363;-11
2022/10/19 10:46:57;;;;;;;;;;;20.60;79.60;;;;;;5077566;28;19924;-11
2022/10/19 10:49:33;;;;;;;;;;;20.60;80.50;;;;;;5075872;28;20211;-9
2022/10/19 10:52:15;;;;;;;;;;;20.50;81.10;;;;;;5076136;28;19909;-12
2022/10/19 10:54:57;;;;;;;;;;;20.40;81.60;;;;;;5075864;28;20204;-10
2022/10/19 10:57:24;;;;;;;;;;;20.40;82.30;;;;;;5075486;28;19922;-11
2022/10/19 10:59:58;;;;;;;;;;;20.30;82.80;;;;;;5109196;28;19970;-11
2022/10/19 11:02:31;;;;;;;;;;;20.30;83.50;;;;;;5075422;28;20201;-11
2022/10/19 11:05:06;;;;;;;;;;;20.20;84.10;;;;;;5075517;28;20183;-11
2022/10/19 11:07:33;;;;;;;;;;;20.20;84.70;;;;;;5090502;28;20269;-11
2022/10/19 11:10:01;;;;;;;;;;;20.10;85.00;;;;;;5096089;28;19919;-11
2022/10/19 11:12:32;;;;;;;;;;;20.10;85.40;;;;;;5094619;28;19923;-11
2022/10/19 11:15:11;;;;;;;;;;;20.10;85.80;;;;;;5094854;28;20001;-10
2022/10/19 11:17:38;;;;;;;;;;;20.00;86.30;;;;;;5093687;28;19947;-11
2022/10/19 11:20:04;;;;;;;;;;;20.00;86.90;;;;;;5093607;28;20527;-11
2022/10/19 11:22:35;;;;;;;;;;;19.90;87.30;;;;;;5094653;28;19912;-10
2022/10/19 11:25:01;;;;;;;;;;;19.90;87.60;;;;;;5094966;28;19998;-10
2022/10/19 11:27:36;;;;;;;;;;;19.80;87.90;;;;;;5094744;28;20003;-11
2022/10/19 11:30:11;;;;;;;;;;;19.80;88.30;;;;;;5094993;28;19961;-10
2022/10/19 11:32:50;;;;;;;;;;;19.80;88.50;;;;;;5095952;28;20444;-10
2022/10/19 11:35:34;;;;;;;;;;;19.80;88.70;;;;;;5096420;28;19904;-10
2022/10/19 11:38:18;;;;;;;;;;;19.80;88.90;;;;;;5095243;28;19908;-8
2022/10/19 11:40:59;;;;;;;;;;;19.80;89.30;;;;;;5075875;28;19912;-11
2022/10/19 11:43:45;;;;;;;;;;;19.80;89.30;;;;;;5075209;28;19913;-9
2022/10/19 11:46:22;;;;;;;;;;;19.80;89.60;;;;;;5075415;28;19908;-10
2022/10/19 11:48:56;;;;;;;;;;;19.70;89.70;;;;;;5090058;28;19948;-9
2022/10/19 11:51:30;;;;;;;;;;;19.70;89.60;;;;;;5073554;28;19919;-12
2022/10/19 11:54:14;;;;;;;;;;;19.70;89.90;;;;;;5072503;28;19974;-11
2022/10/19 11:56:45;;;;;;;;;;;19.70;90.00;;;;;;5072591;28;19909;-10
2022/10/19 11:59:17;;;;;;;;;;;19.60;90.10;;;;;;5106146;28;19915;-12
2022/10/19 12:01:46;;;;;;;;;;;19.60;90.60;;;;;;5073059;28;20278;-10
2022/10/19 12:04:27;;;;;;;;;;;19.50;90.40;;;;;;5073677;28;19920;-10
2022/10/19 12:06:56;;;;;;;;;;;19.50;90.60;;;;;;5071644;28;20004;-9
2022/10/19 12:09:26;;;;;;;;;;;19.50;90.70;;;;;;5072739;28;20404;-10
2022/10/19 12:12:10;;;;;;;;;;;19.50;90.80;;;;;;5072350;28;19912;-11
2022/10/19 12:14:38;;;;;;;;;;;19.50;90.90;;;;;;5074494;28;19940;-10
2022/10/19 12:17:06;;;;;;;;;;;19.50;90.90;;;;;;5074204;28;19924;-8
2022/10/19 12:19:35;;;;;;;;;;;19.40;91.00;;;;;;5074694;28;19908;-11
2022/10/19 12:22:02;;;;;;;;;;;19.40;91.10;;;;;;5074466;28;19971;-9
2022/10/19 12:24:29;;;;;;;;;;;19.40;91.20;;;;;;5074797;28;19908;-9
2022/10/19 12:26:55;;;;;;;;;;;19.40;91.30;;;;;;5072658;28;19966;-11
2022/10/19 12:29:25;;;;;;;;;;;19.40;91.60;;;;;;5073475;28;19909;-10
2022/10/19 12:31:51;;;;;;;;;;;19.40;91.40;;;;;;5089389;28;19913;-11
2022/10/19 12:34:16;;;;;;;;;;;19.40;91.50;;;;;;5090621;28;19990;-10
2022/10/19 12:36:49;;;;;;;;;;;19.40;91.50;;;;;;5075223;28;20197;-10
2022/10/19 12:39:20;;;;;;;;;;;19.40;91.60;;;;;;5073837;28;20276;-11
2022/10/19 12:41:57;;;;;;;;;;;19.30;91.60;;;;;;5074190;28;19921;-10
2022/10/19 12:44:33;;;;;;;;;;;19.30;91.80;;;;;;5073542;28;19942;-10
2022/10/19 12:47:21;;;;;;;;;;;19.30;91.90;;;;;;5073920;28;19909;-11
2022/10/19 12:49:46;;;;;;;;;;;19.30;92.00;;;;;;5074410;28;19931;-10
2022/10/19 12:52:13;;;;;;;;;;;19.30;92.00;;;;;;5073287;28;20387;-10
2022/10/19 12:54:45;;;;;;;;;;;19.20;92.10;;;;;;5073168;28;19915;-11
2022/10/19 12:57:24;;;;;;;;;;;19.20;92.20;;;;;;5072181;28;20202;-10
2022/10/19 13:00:01;;;;;;;;;;;19.10;92.30;;;;;;5072984;28;19916;-10
2022/10/19 13:02:29;;;;;;;;;;;19.10;92.40;;;;;;5066743;28;19920;-11
2022/10/19 13:04:54;;;;;;;;;;;19.10;92.40;;;;;;5065121;28;19908;-10
2022/10/19 13:07:20;;;;;;;;;;;19.10;92.60;;;;;;5064240;28;19916;-10
2022/10/19 13:09:46;;;;;;;;;;;19.10;92.60;;;;;;5066281;28;20270;-10
2022/10/19 13:12:12;;;;;;;;;;;19.00;92.70;;;;;;5066094;28;19908;-10
2022/10/19 13:14:41;;;;;;;;;;;19.00;92.80;;;;;;5065680;28;19977;-9
2022/10/19 13:17:07;;;;;;;;;;;19.00;92.90;;;;;;5064550;28;19979;-10
2022/10/19 13:19:33;;;;;;;;;;;19.00;93.00;;;;;;5063714;28;19909;-10
2022/10/19 13:21:58;;;;;;;;;;;19.00;93.00;;;;;;5064431;28;19913;-10
2022/10/19 13:24:24;;;;;;;;;;;18.90;93.10;;;;;;5065611;28;19908;-10
2022/10/19 13:27:02;;;;;;;;;;;18.90;93.20;;;;;;5061478;28;19948;-9
2022/10/19 13:29:40;;;;;;;;;;;18.90;93.20;;;;;;5065445;28;19939;-10
2022/10/19 13:32:24;;;;;;;;;;;18.90;93.30;;;;;;5064983;28;19912;-10
2022/10/19 13:34:49;;;;;;;;;;;18.90;93.40;;;;;;5066064;28;20035;-9
2022/10/19 13:37:17;;;;;;;;;;;18.90;93.40;;;;;;5064992;28;19912;-10
2022/10/19 13:39:43;;;;;;;;;;;18.80;93.50;;;;;;5064615;28;19978;-11
2022/10/19 13:42:22;;;;;;;;;;;18.80;93.60;;;;;;5064319;28;20015;-11
2022/10/19 13:44:51;;;;;;;;;;;18.80;93.70;;;;;;5065854;28;19959;-11
2022/10/19 13:47:16;;;;;;;;;;;18.80;93.70;;;;;;5064316;28;20140;-10
2022/10/19 13:49:51;;;;;;;;;;;18.80;93.80;;;;;;5061692;28;19943;-11
2022/10/19 13:52:29;;;;;;;;;;;18.80;93.90;;;;;;5062270;28;20239;-10
2022/10/19 13:55:13;;;;;;;;;;;18.70;93.90;;;;;;5060125;28;20195;-9
2022/10/19 13:57:57;;;;;;;;;;;18.70;94.00;;;;;;5060272;28;19924;-10
2022/10/19 14:00:23;;;;;;;;;;;18.70;94.10;;;;;;5059639;28;19908;-10
2022/10/19 14:02:56;;;;;;;;;;;18.70;94.10;;;;;;5059011;28;20045;-11
2022/10/19 14:05:46;;;;;;;;;;;18.70;94.20;;;;;;5075500;28;19909;-10
2022/10/19 14:08:44;;;;;;;;;;;18.70;94.30;;;;;;5057167;28;20397;-9
2022/10/19 14:11:12;;;;;;;;;;;18.60;94.30;;;;;;5038123;28;19908;-11
2022/10/19 14:13:38;;;;;;;;;;;18.70;94.40;;;;;;5061724;28;20285;-10
2022/10/19 14:16:03;;;;;;;;;;;18.60;94.40;;;;;;5078227;28;20186;-12
2022/10/19 14:18:31;;;;;;;;;;;18.60;94.50;;;;;;5062967;28;19916;-10
2022/10/19 14:21:07;;;;;;;;;;;18.60;94.50;;;;;;5063406;28;20106;-11
2022/10/19 14:23:34;;;;;;;;;;;18.60;94.60;;;;;;5062896;28;19977;-11
2022/10/19 14:26:02;;;;;;;;;;;18.60;94.70;;;;;;5062763;28;19988;-11
2022/10/19 14:28:28;;;;;;;;;;;18.60;94.70;;;;;;5063572;28;19940;-10
2022/10/19 14:31:04;;;;;;;;;;;18.60;94.80;;;;;;5065640;28;20174;-9
2022/10/19 14:33:40;;;;;;;;;;;18.60;94.80;;;;;;5065012;28;19908;-10